Time;durP1;ratioP1;P1;durP2;ratioP2;P2;SDS_P1;SDS_P2;PMS_P1;PMS_P2;Temp;Humidity;BMP_temperature;BMP_pressure;BME280_temperature;BME280_humidity;BME280_pressure;Samples;Min_cycle;Max_cycle;Signal;HPM_P1;HPM_P2
2022/06/28 00:01:55;;;;;;;236.70;211.75;;;;;;;;;;5005156;28;20209;-53
2022/06/28 00:04:21;;;;;;;231.55;206.05;;;;;;;;;;5007379;28;20227;-53
2022/06/28 00:06:47;;;;;;;250.98;213.52;;;;;;;;;;5008203;28;20223;-53
2022/06/28 00:09:14;;;;;;;238.32;206.13;;;;;;;;;;5003792;28;20173;-53
2022/06/28 00:11:41;;;;;;;253.93;215.68;;;;;;;;;;5005172;28;20276;-53
2022/06/28 00:16:04;;;;;;;227.63;202.10;;;;;;;;;;5006696;28;20219;-53
2022/06/28 00:16:54;;;;;;;210.77;187.90;;;;;;;;;;5005795;28;20220;-52
2022/06/28 00:19:20;;;;;;;231.80;196.90;;;;;;;;;;5007507;28;20236;-53
2022/06/28 00:21:46;;;;;;;222.95;194.48;;;;;;;;;;5011734;28;20266;-53
2022/06/28 00:24:13;;;;;;;220.15;193.77;;;;;;;;;;5008909;28;20226;-53
2022/06/28 00:26:39;;;;;;;209.52;184.35;;;;;;;;;;5011175;28;20266;-53
2022/06/28 00:29:05;;;;;;;216.52;189.30;;;;;;;;;;5006595;28;20240;-53
2022/06/28 00:31:30;;;;;;;218.35;187.88;;;;;;;;;;5007528;28;20243;-53
2022/06/28 00:33:56;;;;;;;239.65;193.20;;;;;;;;;;5008363;28;20232;-53
2022/06/28 00:36:22;;;;;;;212.05;183.70;;;;;;;;;;5008074;28;20634;-53
2022/06/28 00:38:48;;;;;;;209.30;181.10;;;;;;;;;;5004665;28;20592;-53
2022/06/28 00:41:14;;;;;;;194.60;172.45;;;;;;;;;;5005168;28;20739;-53
2022/06/28 00:43:40;;;;;;;198.45;172.52;;;;;;;;;;5004442;28;20217;-53
2022/06/28 00:46:07;;;;;;;202.35;176.10;;;;;;;;;;5001794;28;20225;-53
2022/06/28 00:48:33;;;;;;;184.60;165.82;;;;;;;;;;4985641;28;20628;-53
2022/06/28 00:50:59;;;;;;;196.70;173.75;;;;;;;;;;5005064;28;20228;-53
2022/06/28 00:53:25;;;;;;;183.27;165.18;;;;;;;;;;5007183;28;20212;-53
2022/06/28 00:55:51;;;;;;;211.85;178.50;;;;;;;;;;5005329;28;20730;-53
2022/06/28 00:58:17;;;;;;;227.15;182.18;;;;;;;;;;5003219;28;20693;-53
2022/06/28 01:00:45;;;;;;;226.50;182.95;;;;;;;;;;4998820;28;20423;-53
2022/06/28 01:03:19;;;;;;;182.82;163.43;;;;;;;;;;5005701;28;20181;-53
2022/06/28 01:05:45;;;;;;;233.73;183.25;;;;;;;;;;5000711;28;20275;-53
2022/06/28 01:08:12;;;;;;;187.00;162.20;;;;;;;;;;5004407;28;20307;-53
2022/06/28 01:10:38;;;;;;;227.15;175.80;;;;;;;;;;5004554;28;20219;-53
2022/06/28 01:13:04;;;;;;;203.52;165.75;;;;;;;;;;5003128;28;20223;-53
2022/06/28 01:15:31;;;;;;;189.25;162.93;;;;;;;;;;5002180;28;20589;-53
2022/06/28 01:17:59;;;;;;;175.00;155.98;;;;;;;;;;5003098;28;20582;-53
2022/06/28 01:20:25;;;;;;;177.63;154.18;;;;;;;;;;5007875;28;20212;-53
2022/06/28 01:22:52;;;;;;;166.15;149.13;;;;;;;;;;5010348;28;20620;-53
2022/06/28 01:25:18;;;;;;;192.15;162.57;;;;;;;;;;5005519;28;20221;-53
2022/06/28 01:27:45;;;;;;;165.88;147.57;;;;;;;;;;5006431;28;20704;-53
2022/06/28 01:30:11;;;;;;;212.20;165.93;;;;;;;;;;5009704;28;20208;-53
2022/06/28 01:32:37;;;;;;;182.20;155.93;;;;;;;;;;5007759;28;20684;-52
2022/06/28 01:35:03;;;;;;;162.10;144.13;;;;;;;;;;5010157;28;20209;-53
2022/06/28 01:37:29;;;;;;;215.10;164.32;;;;;;;;;;5008208;28;20307;-53
2022/06/28 01:39:55;;;;;;;165.50;144.05;;;;;;;;;;5003773;28;20208;-53
2022/06/28 01:42:21;;;;;;;187.43;155.18;;;;;;;;;;5008565;28;20701;-53
2022/06/28 01:44:48;;;;;;;167.07;147.75;;;;;;;;;;5008370;28;20193;-53
2022/06/28 01:47:15;;;;;;;163.07;145.77;;;;;;;;;;5010272;28;20217;-53
2022/06/28 01:49:41;;;;;;;202.98;159.25;;;;;;;;;;5010113;28;20229;-53
2022/06/28 01:52:07;;;;;;;172.82;148.38;;;;;;;;;;5006024;28;20251;-53
2022/06/28 01:54:33;;;;;;;186.55;152.13;;;;;;;;;;5003079;28;20554;-53
2022/06/28 01:57:01;;;;;;;172.75;145.70;;;;;;;;;;5004406;28;20235;-53
2022/06/28 01:59:27;;;;;;;170.93;141.90;;;;;;;;;;5004669;28;20219;-53
2022/06/28 02:01:53;;;;;;;161.32;144.13;;;;;;;;;;5003455;28;20209;-53
2022/06/28 02:04:24;;;;;;;203.18;151.80;;;;;;;;;;5004902;28;20577;-53
2022/06/28 02:06:50;;;;;;;186.93;141.68;;;;;;;;;;4995446;28;20584;-52
2022/06/28 02:09:16;;;;;;;145.00;129.00;;;;;;;;;;4999931;28;20178;-53
2022/06/28 02:11:42;;;;;;;175.48;134.63;;;;;;;;;;5007041;28;20199;-52
2022/06/28 02:14:08;;;;;;;135.57;121.10;;;;;;;;;;5001231;28;20216;-53
2022/06/28 02:16:33;;;;;;;136.95;120.30;;;;;;;;;;5003355;28;20228;-53
2022/06/28 02:18:59;;;;;;;125.05;111.82;;;;;;;;;;5008592;28;20216;-52
2022/06/28 02:21:26;;;;;;;152.60;123.72;;;;;;;;;;5005511;28;20237;-52
2022/06/28 02:23:52;;;;;;;147.60;119.70;;;;;;;;;;5009860;28;20219;-53
2022/06/28 02:26:18;;;;;;;153.00;122.07;;;;;;;;;;5002874;28;20622;-53
2022/06/28 02:28:43;;;;;;;129.65;115.88;;;;;;;;;;5001235;28;20303;-53
2022/06/28 02:31:13;;;;;;;121.13;109.80;;;;;;;;;;5005342;28;20245;-52
2022/06/28 02:33:39;;;;;;;130.88;117.53;;;;;;;;;;5005369;28;20616;-53
2022/06/28 02:40:21;;;;;;;135.00;120.55;;;;;;;;;;5008244;28;20234;-53
2022/06/28 02:41:55;;;;;;;123.45;110.45;;;;;;;;;;5005048;28;20205;-52
2022/06/28 02:44:21;;;;;;;138.45;117.93;;;;;;;;;;5005380;28;20224;-52
2022/06/28 02:46:47;;;;;;;150.88;120.30;;;;;;;;;;5007511;28;20213;-52
2022/06/28 02:49:13;;;;;;;142.38;116.47;;;;;;;;;;5003634;28;20712;-52
2022/06/28 02:51:40;;;;;;;121.85;108.90;;;;;;;;;;5007794;28;20708;-52
2022/06/28 02:54:06;;;;;;;134.68;113.93;;;;;;;;;;5004211;28;20181;-52
2022/06/28 02:56:32;;;;;;;123.55;110.35;;;;;;;;;;5005856;28;20260;-52
2022/06/28 02:58:58;;;;;;;122.32;109.97;;;;;;;;;;5003606;28;20217;-53
2022/06/28 03:01:24;;;;;;;152.50;117.40;;;;;;;;;;5003198;28;20209;-53
2022/06/28 03:03:50;;;;;;;118.78;106.00;;;;;;;;;;5003563;28;20205;-52
2022/06/28 03:06:16;;;;;;;151.05;114.70;;;;;;;;;;4998760;28;20693;-53
2022/06/28 03:08:42;;;;;;;131.88;106.30;;;;;;;;;;5003783;28;20181;-52
2022/06/28 03:11:07;;;;;;;109.47;98.05;;;;;;;;;;5005828;28;20216;-53
2022/06/28 03:13:33;;;;;;;165.70;113.85;;;;;;;;;;5001686;28;21791;-53
2022/06/28 03:15:59;;;;;;;122.18;109.18;;;;;;;;;;5002886;28;20243;-52
2022/06/28 03:18:25;;;;;;;127.32;102.68;;;;;;;;;;5000156;28;20677;-52
2022/06/28 03:20:51;;;;;;;125.28;102.80;;;;;;;;;;5004955;28;20263;-52
2022/06/28 03:23:17;;;;;;;151.20;108.55;;;;;;;;;;5003154;28;20216;-52
2022/06/28 03:25:43;;;;;;;173.73;114.32;;;;;;;;;;5000471;28;20224;-51
2022/06/28 03:28:09;;;;;;;136.27;105.22;;;;;;;;;;5005842;28;20221;-52
2022/06/28 03:30:35;;;;;;;109.63;91.10;;;;;;;;;;4999931;28;20224;-52
2022/06/28 03:33:01;;;;;;;140.52;101.20;;;;;;;;;;5003063;28;20299;-53
2022/06/28 03:35:27;;;;;;;119.18;98.05;;;;;;;;;;4997080;28;20228;-54
2022/06/28 03:37:53;;;;;;;143.38;105.25;;;;;;;;;;4998983;28;20221;-54
2022/06/28 03:40:19;;;;;;;175.30;115.90;;;;;;;;;;4999369;28;20415;-52
2022/06/28 03:42:45;;;;;;;149.98;110.25;;;;;;;;;;4995940;28;20617;-51
2022/06/28 03:45:11;;;;;;;161.00;119.72;;;;;;;;;;4994636;28;20341;-51
2022/06/28 03:47:37;;;;;;;107.40;96.05;;;;;;;;;;4999954;28;20181;-52
2022/06/28 03:50:03;;;;;;;129.25;102.32;;;;;;;;;;4999085;28;20213;-51
2022/06/28 03:52:29;;;;;;;124.65;99.53;;;;;;;;;;5006735;28;20299;-52
2022/06/28 03:54:56;;;;;;;211.95;126.03;;;;;;;;;;4991850;28;20215;-52
2022/06/28 03:57:22;;;;;;;132.35;106.22;;;;;;;;;;4999225;28;20291;-52
2022/06/28 03:59:48;;;;;;;116.35;101.35;;;;;;;;;;5007531;28;20199;-52
2022/06/28 04:02:14;;;;;;;135.23;106.78;;;;;;;;;;4999822;28;20208;-52
2022/06/28 04:04:40;;;;;;;168.60;119.97;;;;;;;;;;4997722;28;20227;-51
2022/06/28 04:07:06;;;;;;;141.35;107.03;;;;;;;;;;4995142;28;20225;-51
2022/06/28 04:09:32;;;;;;;119.38;106.40;;;;;;;;;;5002560;28;20216;-52
2022/06/28 04:11:58;;;;;;;176.32;123.53;;;;;;;;;;4998211;28;20646;-52
2022/06/28 04:14:24;;;;;;;111.40;99.88;;;;;;;;;;5004248;28;20216;-52
2022/06/28 04:16:50;;;;;;;143.43;107.43;;;;;;;;;;5000948;28;20243;-52
2022/06/28 04:19:16;;;;;;;142.57;102.78;;;;;;;;;;5005178;28;20208;-52
2022/06/28 04:21:42;;;;;;;93.40;84.88;;;;;;;;;;4996402;28;20200;-54
2022/06/28 04:24:08;;;;;;;135.30;102.03;;;;;;;;;;4992803;28;20180;-52
2022/06/28 04:26:34;;;;;;;195.65;116.82;;;;;;;;;;4993280;28;20258;-52
2022/06/28 04:29:00;;;;;;;125.20;96.93;;;;;;;;;;4994310;28;20734;-52
2022/06/28 04:31:26;;;;;;;113.50;96.28;;;;;;;;;;5002907;28;20281;-52
2022/06/28 04:33:52;;;;;;;126.57;106.70;;;;;;;;;;4980378;28;20653;-52
2022/06/28 04:36:18;;;;;;;174.93;109.70;;;;;;;;;;5002065;28;20244;-54
2022/06/28 04:38:44;;;;;;;143.48;103.47;;;;;;;;;;4993912;28;20654;-54
2022/06/28 04:41:10;;;;;;;152.00;100.95;;;;;;;;;;4991614;28;20227;-54
2022/06/28 04:43:36;;;;;;;142.95;108.72;;;;;;;;;;4989948;28;20973;-52
2022/06/28 04:46:02;;;;;;;98.40;88.22;;;;;;;;;;4998350;28;20252;-52
2022/06/28 04:48:28;;;;;;;99.40;86.10;;;;;;;;;;5002867;28;20221;-52
2022/06/28 04:50:54;;;;;;;171.43;108.75;;;;;;;;;;5000500;28;20252;-52
2022/06/28 04:53:20;;;;;;;151.95;105.70;;;;;;;;;;4996622;28;20213;-52
2022/06/28 04:55:46;;;;;;;186.55;117.70;;;;;;;;;;5000907;28;20217;-52
2022/06/28 04:58:12;;;;;;;149.18;107.22;;;;;;;;;;4993473;28;20240;-54
2022/06/28 05:00:38;;;;;;;135.40;95.65;;;;;;;;;;4995462;28;20642;-54
2022/06/28 05:03:04;;;;;;;163.63;112.57;;;;;;;;;;4996024;28;20181;-54
2022/06/28 05:05:30;;;;;;;160.55;106.35;;;;;;;;;;4996688;28;20205;-54
2022/06/28 05:07:56;;;;;;;180.52;114.80;;;;;;;;;;4990491;28;20221;-55
2022/06/28 05:10:22;;;;;;;150.40;109.15;;;;;;;;;;4992827;28;20727;-53
2022/06/28 05:12:48;;;;;;;136.55;104.28;;;;;;;;;;5001372;28;20212;-52
2022/06/28 05:15:14;;;;;;;130.07;98.10;;;;;;;;;;4993918;28;20280;-53
2022/06/28 05:17:40;;;;;;;107.82;96.88;;;;;;;;;;5005222;28;20224;-52
2022/06/28 05:20:06;;;;;;;156.77;110.35;;;;;;;;;;5004312;28;20266;-52
2022/06/28 05:22:32;;;;;;;129.23;103.10;;;;;;;;;;4992081;28;22879;-52
2022/06/28 05:24:58;;;;;;;169.82;112.82;;;;;;;;;;5000049;28;20672;-52
2022/06/28 05:27:24;;;;;;;130.65;96.88;;;;;;;;;;4994398;28;20697;-54
2022/06/28 05:29:50;;;;;;;91.78;83.00;;;;;;;;;;5007211;28;20185;-55
2022/06/28 05:32:16;;;;;;;103.55;87.75;;;;;;;;;;5010183;28;20212;-55
2022/06/28 05:34:42;;;;;;;86.07;77.82;;;;;;;;;;5010069;28;20216;-55
2022/06/28 05:37:09;;;;;;;94.43;82.45;;;;;;;;;;5002416;28;20708;-54
2022/06/28 05:39:34;;;;;;;88.30;79.20;;;;;;;;;;5017370;28;20213;-55
2022/06/28 05:42:00;;;;;;;76.63;69.35;;;;;;;;;;5010492;28;20177;-54
2022/06/28 05:44:26;;;;;;;105.00;87.63;;;;;;;;;;5008066;28;20225;-54
2022/06/28 05:46:52;;;;;;;74.57;68.63;;;;;;;;;;5010724;28;20221;-55
2022/06/28 05:49:18;;;;;;;86.80;78.68;;;;;;;;;;5019223;28;20213;-55
2022/06/28 05:51:45;;;;;;;81.43;73.82;;;;;;;;;;5029597;28;20236;-55
2022/06/28 05:54:11;;;;;;;91.57;82.57;;;;;;;;;;5029247;28;20175;-54
2022/06/28 05:56:37;;;;;;;105.60;93.50;;;;;;;;;;5021813;28;20208;-55
2022/06/28 05:59:06;;;;;;;96.20;86.35;;;;;;;;;;5009272;28;20209;-57
2022/06/28 06:01:32;;;;;;;97.10;87.38;;;;;;;;;;4994229;28;20235;-55
2022/06/28 06:03:58;;;;;;;100.32;91.18;;;;;;;;;;5031596;28;20247;-55
2022/06/28 06:06:24;;;;;;;101.00;89.85;;;;;;;;;;5032804;28;20232;-55
2022/06/28 06:08:54;;;;;;;101.10;91.90;;;;;;;;;;5013467;28;20272;-55
2022/06/28 06:11:20;;;;;;;105.07;95.05;;;;;;;;;;5007876;28;20701;-55
2022/06/28 06:13:46;;;;;;;102.55;93.35;;;;;;;;;;5020843;28;20210;-55
2022/06/28 06:16:12;;;;;;;115.05;101.20;;;;;;;;;;5019319;28;20776;-51
2022/06/28 06:18:38;;;;;;;116.32;101.13;;;;;;;;;;5006626;28;20209;-52
2022/06/28 06:21:04;;;;;;;96.40;86.55;;;;;;;;;;5006912;28;20573;-50
2022/06/28 06:23:30;;;;;;;312.55;158.05;;;;;;;;;;4997536;28;20204;-54
2022/06/28 06:25:56;;;;;;;273.33;142.88;;;;;;;;;;4985708;28;20224;-53
2022/06/28 06:28:22;;;;;;;136.93;102.30;;;;;;;;;;5003056;28;20722;-53
2022/06/28 06:30:48;;;;;;;199.27;121.78;;;;;;;;;;4993771;28;20221;-53
2022/06/28 06:33:14;;;;;;;243.07;137.48;;;;;;;;;;4984933;28;20196;-53
2022/06/28 06:35:40;;;;;;;183.07;125.95;;;;;;;;;;4979015;28;20209;-52
2022/06/28 06:38:06;;;;;;;229.23;135.65;;;;;;;;;;4996113;28;20213;-52
2022/06/28 06:40:32;;;;;;;167.25;120.78;;;;;;;;;;4994472;28;20677;-53
2022/06/28 06:42:58;;;;;;;271.65;145.93;;;;;;;;;;4995397;28;20297;-53
2022/06/28 06:45:24;;;;;;;199.07;126.13;;;;;;;;;;4984623;28;20709;-53
2022/06/28 06:47:50;;;;;;;174.15;115.45;;;;;;;;;;4992017;28;20645;-52
2022/06/28 06:50:16;;;;;;;193.95;121.63;;;;;;;;;;4998353;28;20213;-52
2022/06/28 06:52:42;;;;;;;165.65;107.35;;;;;;;;;;4991139;28;20212;-53
2022/06/28 06:55:09;;;;;;;85.30;76.63;;;;;;;;;;5005368;28;20212;-52
2022/06/28 06:57:35;;;;;;;94.25;84.20;;;;;;;;;;5008445;28;20224;-52
2022/06/28 07:00:01;;;;;;;95.85;86.20;;;;;;;;;;5010424;28;20665;-52
2022/06/28 07:02:27;;;;;;;99.63;89.10;;;;;;;;;;5007966;28;20651;-52
2022/06/28 07:04:53;;;;;;;76.50;70.88;;;;;;;;;;5011935;28;20381;-52
2022/06/28 07:07:19;;;;;;;98.10;83.95;;;;;;;;;;4999166;28;20235;-52
2022/06/28 07:09:45;;;;;;;111.82;91.43;;;;;;;;;;5009270;28;20217;-52
2022/06/28 07:12:11;;;;;;;91.68;82.32;;;;;;;;;;5008516;28;20220;-52
2022/06/28 07:14:37;;;;;;;84.75;76.57;;;;;;;;;;4997649;28;20224;-54
2022/06/28 07:17:03;;;;;;;83.97;76.35;;;;;;;;;;5011595;28;20275;-54
2022/06/28 07:19:29;;;;;;;78.22;71.70;;;;;;;;;;5011947;28;20673;-54
2022/06/28 07:21:55;;;;;;;91.47;80.85;;;;;;;;;;5011980;28;20208;-54
2022/06/28 07:24:21;;;;;;;88.35;79.53;;;;;;;;;;5011914;28;20235;-54
2022/06/28 07:26:49;;;;;;;90.60;82.00;;;;;;;;;;5008405;28;20220;-54
2022/06/28 07:29:15;;;;;;;87.88;79.80;;;;;;;;;;5011473;28;20830;-54
2022/06/28 07:31:41;;;;;;;84.25;76.03;;;;;;;;;;5024040;28;20792;-54
2022/06/28 07:34:07;;;;;;;89.35;79.65;;;;;;;;;;5003417;28;20223;-54
2022/06/28 07:36:33;;;;;;;82.57;74.72;;;;;;;;;;5011335;28;20308;-53
2022/06/28 07:38:59;;;;;;;80.25;72.65;;;;;;;;;;5019067;28;20640;-54
2022/06/28 07:41:25;;;;;;;67.60;63.17;;;;;;;;;;5031597;28;20220;-54
2022/06/28 07:43:51;;;;;;;87.68;77.25;;;;;;;;;;5024671;28;20241;-54
2022/06/28 07:46:18;;;;;;;81.30;73.28;;;;;;;;;;5010928;28;20251;-54
2022/06/28 07:48:44;;;;;;;82.82;74.25;;;;;;;;;;5009893;28;20205;-53
2022/06/28 07:53:55;;;;;;;86.53;77.97;;;;;;;;;;5011364;28;20715;-54
2022/06/28 07:56:21;;;;;;;88.15;79.45;;;;;;;;;;5030472;28;20307;-54
2022/06/28 07:58:47;;;;;;;80.13;72.65;;;;;;;;;;5030005;28;20306;-54
2022/06/28 08:01:13;;;;;;;86.25;78.45;;;;;;;;;;5011504;28;20271;-54
2022/06/28 08:03:39;;;;;;;95.32;85.18;;;;;;;;;;5011473;28;20208;-54
2022/06/28 08:06:05;;;;;;;86.97;79.32;;;;;;;;;;5011032;28;20201;-54
2022/06/28 08:08:31;;;;;;;89.85;81.85;;;;;;;;;;5015067;28;20226;-54
2022/06/28 08:10:56;;;;;;;91.72;83.10;;;;;;;;;;5031123;28;20223;-54
2022/06/28 08:13:23;;;;;;;89.97;81.68;;;;;;;;;;5012616;28;20616;-54
2022/06/28 08:15:49;;;;;;;95.38;86.50;;;;;;;;;;5016808;28;20588;-54
2022/06/28 08:18:15;;;;;;;90.93;82.97;;;;;;;;;;5027208;28;20172;-54
2022/06/28 08:20:41;;;;;;;100.57;89.90;;;;;;;;;;5026827;28;20201;-54
2022/06/28 08:23:07;;;;;;;85.28;78.18;;;;;;;;;;5027286;28;20702;-54
2022/06/28 08:25:33;;;;;;;91.40;83.13;;;;;;;;;;5030626;28;20592;-54
2022/06/28 08:27:59;;;;;;;97.65;88.43;;;;;;;;;;5014312;28;20213;-54
2022/06/28 08:30:28;;;;;;;102.30;91.75;;;;;;;;;;5027109;28;20211;-54
2022/06/28 08:32:54;;;;;;;104.35;95.20;;;;;;;;;;5014833;28;20181;-54
2022/06/28 08:35:20;;;;;;;139.68;124.60;;;;;;;;;;5010328;28;20232;-54
2022/06/28 08:37:46;;;;;;;160.00;140.65;;;;;;;;;;5010556;28;20224;-54
2022/06/28 08:40:12;;;;;;;177.88;152.88;;;;;;;;;;5011138;28;20629;-54
2022/06/28 08:42:40;;;;;;;188.20;167.35;;;;;;;;;;5009591;28;20220;-54
2022/06/28 08:45:06;;;;;;;160.20;145.43;;;;;;;;;;5009612;28;20188;-54
2022/06/28 08:47:33;;;;;;;183.77;160.27;;;;;;;;;;5010734;28;20184;-54
2022/06/28 08:50:05;;;;;;;145.95;132.27;;;;;;;;;;5010008;28;20228;-54
2022/06/28 08:52:33;;;;;;;128.70;116.05;;;;;;;;;;4996202;28;20213;-54
2022/06/28 08:55:00;;;;;;;136.18;123.35;;;;;;;;;;5000579;28;20225;-54
2022/06/28 08:57:30;;;;;;;149.65;133.20;;;;;;;;;;5015124;28;20231;-54
2022/06/28 08:59:57;;;;;;;125.13;113.90;;;;;;;;;;5011056;28;20174;-55
2022/06/28 09:02:23;;;;;;;134.23;120.10;;;;;;;;;;5010359;28;20227;-54
2022/06/28 09:04:53;;;;;;;150.45;133.48;;;;;;;;;;5009941;28;20212;-55
2022/06/28 09:07:23;;;;;;;191.48;143.80;;;;;;;;;;5022073;28;20632;-55
2022/06/28 09:09:49;;;;;;;146.63;125.20;;;;;;;;;;5006467;28;20220;-55
2022/06/28 09:12:15;;;;;;;119.82;108.20;;;;;;;;;;5009592;28;20243;-54
2022/06/28 09:14:41;;;;;;;124.05;112.10;;;;;;;;;;5012395;28;20177;-55
2022/06/28 09:17:21;;;;;;;119.47;109.60;;;;;;;;;;5009134;28;20285;-55
2022/06/28 09:19:47;;;;;;;130.95;118.38;;;;;;;;;;5009498;28;20220;-54
2022/06/28 09:22:40;;;;;;;122.25;111.65;;;;;;;;;;5010610;28;20697;-54
2022/06/28 09:25:26;;;;;;;135.60;121.30;;;;;;;;;;4989960;28;20231;-54
2022/06/28 09:27:56;;;;;;;136.95;124.75;;;;;;;;;;5010633;28;20708;-55
2022/06/28 09:30:22;;;;;;;138.23;124.72;;;;;;;;;;5010136;28;20223;-54
2022/06/28 09:32:48;;;;;;;144.50;130.10;;;;;;;;;;5011015;28;20180;-54
2022/06/28 09:35:14;;;;;;;137.35;123.93;;;;;;;;;;5010450;28;20217;-54
2022/06/28 09:37:48;;;;;;;134.20;121.75;;;;;;;;;;5004285;28;20222;-54
2022/06/28 09:40:26;;;;;;;134.82;122.60;;;;;;;;;;5009411;28;20667;-54
2022/06/28 09:43:06;;;;;;;133.80;122.10;;;;;;;;;;5028677;28;20208;-54
2022/06/28 09:45:32;;;;;;;158.55;142.43;;;;;;;;;;5027345;28;20367;-54
2022/06/28 09:47:58;;;;;;;140.77;128.18;;;;;;;;;;5015730;28;20184;-55
2022/06/28 09:50:24;;;;;;;147.20;132.48;;;;;;;;;;5013529;28;20216;-54
2022/06/28 09:52:51;;;;;;;175.85;156.23;;;;;;;;;;5013999;28;20239;-55
2022/06/28 09:55:18;;;;;;;140.80;129.13;;;;;;;;;;5015003;28;20213;-54
2022/06/28 09:57:45;;;;;;;138.32;126.07;;;;;;;;;;5031756;28;20285;-55
2022/06/28 10:00:12;;;;;;;145.20;131.27;;;;;;;;;;5013709;28;20175;-55
2022/06/28 10:02:39;;;;;;;155.48;139.90;;;;;;;;;;5014849;28;20164;-54
2022/06/28 10:05:06;;;;;;;134.98;123.50;;;;;;;;;;5014296;28;20215;-54
2022/06/28 10:07:34;;;;;;;140.32;127.40;;;;;;;;;;5013647;28;20223;-55
2022/06/28 10:10:00;;;;;;;152.80;137.38;;;;;;;;;;5013622;28;20220;-54
2022/06/28 10:15:10;;;;;;;164.40;147.55;;;;;;;;;;5029122;28;20490;-54
2022/06/28 10:17:54;;;;;;;151.95;137.75;;;;;;;;;;5012233;28;20200;-54
2022/06/28 10:20:25;;;;;;;170.90;152.90;;;;;;;;;;5006810;28;20216;-55
2022/06/28 10:22:50;;;;;;;162.63;148.25;;;;;;;;;;5012848;28;20213;-54
2022/06/28 10:25:24;;;;;;;185.38;167.52;;;;;;;;;;5013055;28;20219;-55
2022/06/28 10:27:51;;;;;;;172.00;154.02;;;;;;;;;;5013061;28;20589;-54
2022/06/28 10:30:24;;;;;;;174.27;155.85;;;;;;;;;;5013060;28;20174;-54
2022/06/28 10:32:52;;;;;;;183.10;161.38;;;;;;;;;;5013440;28;20177;-54
2022/06/28 10:35:30;;;;;;;193.77;170.77;;;;;;;;;;4995545;28;20685;-55
2022/06/28 10:38:15;;;;;;;195.95;174.50;;;;;;;;;;5013099;28;20731;-55
2022/06/28 10:40:41;;;;;;;188.88;168.55;;;;;;;;;;5012791;28;20216;-54
2022/06/28 10:43:07;;;;;;;175.18;157.32;;;;;;;;;;4995150;28;20223;-54
2022/06/28 10:45:53;;;;;;;247.38;193.52;;;;;;;;;;4997793;28;21037;-55
2022/06/28 10:48:19;;;;;;;261.98;199.27;;;;;;;;;;4976709;28;20418;-52
2022/06/28 10:50:58;;;;;;;314.33;219.57;;;;;;;;;;4993572;28;20177;-52
2022/06/28 10:53:28;;;;;;;243.13;202.45;;;;;;;;;;4997568;28;20654;-52
2022/06/28 10:56:12;;;;;;;307.05;228.98;;;;;;;;;;4991592;28;20307;-52
2022/06/28 10:58:54;;;;;;;229.32;201.52;;;;;;;;;;4986888;28;20217;-52
2022/06/28 11:01:40;;;;;;;199.20;178.70;;;;;;;;;;4979812;28;20689;-55
2022/06/28 11:04:11;;;;;;;195.38;174.73;;;;;;;;;;5000053;28;20205;-55
2022/06/28 11:06:40;;;;;;;224.48;187.50;;;;;;;;;;4995825;28;20681;-55
2022/06/28 11:09:13;;;;;;;262.45;201.55;;;;;;;;;;4997532;28;20255;-55
2022/06/28 11:11:59;;;;;;;283.08;207.85;;;;;;;;;;4999800;28;20181;-54
2022/06/28 11:14:29;;;;;;;216.15;178.30;;;;;;;;;;5000445;28;20213;-55
2022/06/28 11:16:56;;;;;;;229.05;180.73;;;;;;;;;;4998061;28;20216;-55
2022/06/28 11:19:23;;;;;;;276.13;212.05;;;;;;;;;;4997249;28;20213;-55
2022/06/28 11:21:54;;;;;;;307.75;218.57;;;;;;;;;;4997593;28;20550;-55
2022/06/28 11:24:21;;;;;;;330.33;239.60;;;;;;;;;;4994546;28;20751;-55
2022/06/28 11:29:32;;;;;;;210.45;187.88;;;;;;;;;;4999649;28;20267;-55
2022/06/28 11:31:58;;;;;;;215.60;192.07;;;;;;;;;;4998171;28;20224;-55
2022/06/28 11:34:27;;;;;;;233.77;209.15;;;;;;;;;;5008210;28;20217;-55
2022/06/28 11:36:56;;;;;;;241.40;214.02;;;;;;;;;;4998926;28;20230;-55
2022/06/28 11:39:23;;;;;;;249.27;211.65;;;;;;;;;;4997155;28;20217;-55
2022/06/28 11:41:50;;;;;;;242.00;213.05;;;;;;;;;;4999421;28;20188;-55
2022/06/28 11:44:17;;;;;;;280.42;232.38;;;;;;;;;;4999014;28;20372;-55
2022/06/28 11:46:43;;;;;;;213.52;191.43;;;;;;;;;;4998855;28;20224;-55
2022/06/28 11:49:09;;;;;;;251.15;218.52;;;;;;;;;;5000114;28;20311;-55
2022/06/28 11:51:35;;;;;;;272.58;220.68;;;;;;;;;;4995963;28;20232;-55
2022/06/28 11:54:06;;;;;;;265.65;215.75;;;;;;;;;;4979308;28;20607;-55
2022/06/28 11:56:45;;;;;;;252.30;215.82;;;;;;;;;;4996695;28;20201;-55
2022/06/28 11:59:11;;;;;;;255.98;210.70;;;;;;;;;;4998530;28;20244;-55
2022/06/28 12:01:38;;;;;;;263.13;216.45;;;;;;;;;;4972786;28;20219;-55
2022/06/28 12:04:06;;;;;;;231.95;202.90;;;;;;;;;;4999610;28;20590;-55
2022/06/28 12:06:33;;;;;;;240.63;212.48;;;;;;;;;;5000703;28;20208;-55
2022/06/28 12:08:59;;;;;;;272.75;226.15;;;;;;;;;;5000777;28;20173;-55
2022/06/28 12:11:28;;;;;;;275.73;233.80;;;;;;;;;;5000282;28;20232;-55
2022/06/28 12:13:55;;;;;;;267.23;222.98;;;;;;;;;;4998167;28;20300;-55
2022/06/28 12:16:21;;;;;;;248.20;220.05;;;;;;;;;;4992639;28;20315;-55
2022/06/28 12:18:53;;;;;;;223.20;199.45;;;;;;;;;;5001171;28;20303;-55
2022/06/28 12:21:19;;;;;;;254.18;222.63;;;;;;;;;;5001186;28;20177;-55
2022/06/28 12:23:53;;;;;;;261.50;215.88;;;;;;;;;;5008614;28;20175;-55
2022/06/28 12:26:20;;;;;;;250.00;212.55;;;;;;;;;;4999450;28;20735;-55
2022/06/28 12:28:46;;;;;;;260.55;220.80;;;;;;;;;;5001542;28;20558;-55
2022/06/28 12:31:12;;;;;;;260.35;215.57;;;;;;;;;;5003839;28;20227;-55
2022/06/28 12:33:38;;;;;;;249.40;215.27;;;;;;;;;;5002007;28;20217;-55
2022/06/28 12:36:04;;;;;;;299.35;240.75;;;;;;;;;;4998416;28;20236;-55
2022/06/28 12:38:30;;;;;;;253.20;225.43;;;;;;;;;;4990501;28;20722;-55
2022/06/28 12:40:56;;;;;;;259.40;233.02;;;;;;;;;;5006024;28;20291;-56
2022/06/28 12:43:22;;;;;;;308.05;258.20;;;;;;;;;;4998287;28;20239;-56
2022/06/28 12:45:48;;;;;;;280.80;250.40;;;;;;;;;;5006539;28;20269;-56
2022/06/28 12:48:15;;;;;;;266.92;239.02;;;;;;;;;;4984446;28;20184;-56
2022/06/28 12:50:41;;;;;;;283.08;242.23;;;;;;;;;;5003621;28;20205;-55
2022/06/28 12:53:08;;;;;;;311.58;265.80;;;;;;;;;;5004887;28;20263;-56
2022/06/28 12:55:34;;;;;;;288.95;250.77;;;;;;;;;;5005445;28;20220;-56
2022/06/28 12:58:00;;;;;;;283.13;243.50;;;;;;;;;;5003985;28;20213;-55
2022/06/28 13:00:26;;;;;;;266.17;237.57;;;;;;;;;;4989760;28;20262;-56
2022/06/28 13:02:52;;;;;;;280.65;250.82;;;;;;;;;;5004161;28;20275;-55
2022/06/28 13:05:19;;;;;;;286.35;255.60;;;;;;;;;;5003824;28;20209;-56
2022/06/28 13:07:46;;;;;;;285.92;250.73;;;;;;;;;;4999584;28;20709;-55
2022/06/28 13:10:13;;;;;;;266.17;237.40;;;;;;;;;;4998583;28;20216;-55
2022/06/28 13:12:39;;;;;;;270.33;236.65;;;;;;;;;;4983874;28;20316;-55
2022/06/28 13:15:05;;;;;;;361.48;282.15;;;;;;;;;;5008359;28;20264;-55
2022/06/28 13:17:31;;;;;;;306.95;253.82;;;;;;;;;;4998190;28;20248;-55
2022/06/28 13:19:57;;;;;;;283.92;249.15;;;;;;;;;;5005916;28;20264;-55
2022/06/28 13:22:22;;;;;;;339.45;273.35;;;;;;;;;;4995671;28;20689;-55
2022/06/28 13:24:48;;;;;;;317.38;283.33;;;;;;;;;;5000959;28;20601;-55
2022/06/28 13:27:14;;;;;;;335.67;293.40;;;;;;;;;;5008401;28;20561;-55
2022/06/28 13:29:40;;;;;;;330.13;291.88;;;;;;;;;;5004315;28;20280;-56
2022/06/28 13:32:06;;;;;;;338.08;300.38;;;;;;;;;;5007052;28;20652;-54
2022/06/28 13:34:32;;;;;;;335.65;299.13;;;;;;;;;;4995977;28;20217;-54
2022/06/28 13:37:00;;;;;;;356.60;309.30;;;;;;;;;;4994404;28;20228;-52
2022/06/28 13:39:26;;;;;;;360.98;321.20;;;;;;;;;;4995485;28;20302;-52
2022/06/28 13:41:52;;;;;;;319.10;284.35;;;;;;;;;;5004260;28;20180;-52
2022/06/28 13:44:18;;;;;;;320.48;286.48;;;;;;;;;;5001080;28;20220;-52
2022/06/28 13:46:45;;;;;;;359.60;302.83;;;;;;;;;;4993240;28;20707;-52
2022/06/28 13:49:10;;;;;;;398.75;327.23;;;;;;;;;;4991402;28;20681;-56
2022/06/28 13:51:37;;;;;;;348.33;306.38;;;;;;;;;;4990158;28;20209;-56
2022/06/28 13:54:03;;;;;;;353.45;302.63;;;;;;;;;;4988271;28;20220;-56
2022/06/28 13:56:29;;;;;;;339.30;293.27;;;;;;;;;;4988631;28;20327;-56
2022/06/28 13:58:55;;;;;;;336.58;299.67;;;;;;;;;;4988067;28;20219;-56
2022/06/28 14:01:21;;;;;;;379.67;312.75;;;;;;;;;;4990271;28;20613;-56
2022/06/28 14:03:47;;;;;;;370.45;322.48;;;;;;;;;;4989623;28;20712;-56
2022/06/28 14:06:13;;;;;;;368.23;327.67;;;;;;;;;;4992896;28;20640;-56
2022/06/28 14:08:39;;;;;;;340.73;300.38;;;;;;;;;;4984098;28;20240;-56